sensor_id;sensor_type;location;lat;lon;timestamp;temperature;humidity
38359;DHT22;42072;48.044;14.416;2024-01-10T00:00:18;-5.30;1.00
38359;DHT22;42072;48.044;14.416;2024-01-10T00:02:45;-5.20;1.00
38359;DHT22;42072;48.044;14.416;2024-01-10T00:05:12;-5.20;1.00
38359;DHT22;42072;48.044;14.416;2024-01-10T00:07:42;-5.10;1.00
38359;DHT22;42072;48.044;14.416;2024-01-10T00:10:09;-5.20;1.00
38359;DHT22;42072;48.044;14.416;2024-01-10T00:12:36;-5.20;1.00
38359;DHT22;42072;48.044;14.416;2024-01-10T00:15:04;-5.20;1.00
38359;DHT22;42072;48.044;14.416;2024-01-10T00:17:32;-5.20;1.00
38359;DHT22;42072;48.044;14.416;2024-01-10T00:20:00;-5.20;1.00
38359;DHT22;42072;48.044;14.416;2024-01-10T00:22:27;-5.20;1.00
38359;DHT22;42072;48.044;14.416;2024-01-10T00:24:54;-5.20;1.00
38359;DHT22;42072;48.044;14.416;2024-01-10T00:27:21;-5.20;1.00
38359;DHT22;42072;48.044;14.416;2024-01-10T00:29:48;-5.10;1.00
38359;DHT22;42072;48.044;14.416;2024-01-10T00:32:18;-5.10;1.00
38359;DHT22;42072;48.044;14.416;2024-01-10T00:34:45;-5.20;1.00
38359;DHT22;42072;48.044;14.416;2024-01-10T00:37:12;-5.20;1.00
38359;DHT22;42072;48.044;14.416;2024-01-10T00:39:39;-5.30;1.00
38359;DHT22;42072;48.044;14.416;2024-01-10T00:42:06;-5.30;1.00
38359;DHT22;42072;48.044;14.416;2024-01-10T00:44:33;-5.30;1.00
38359;DHT22;42072;48.044;14.416;2024-01-10T00:47:01;-5.30;1.00
38359;DHT22;42072;48.044;14.416;2024-01-10T00:49:29;-5.30;1.00
38359;DHT22;42072;48.044;14.416;2024-01-10T00:51:56;-5.30;1.00
38359;DHT22;42072;48.044;14.416;2024-01-10T00:54:23;-5.40;1.00
38359;DHT22;42072;48.044;14.416;2024-01-10T00:56:50;-5.30;1.00
38359;DHT22;42072;48.044;14.416;2024-01-10T00:59:18;-5.40;1.00
38359;DHT22;42072;48.044;14.416;2024-01-10T01:01:45;-5.30;1.00
38359;DHT22;42072;48.044;14.416;2024-01-10T01:04:12;-5.40;1.00
38359;DHT22;42072;48.044;14.416;2024-01-10T01:06:39;-5.40;1.00
38359;DHT22;42072;48.044;14.416;2024-01-10T01:09:06;-5.30;1.00
38359;DHT22;42072;48.044;14.416;2024-01-10T01:11:34;-5.40;1.00
38359;DHT22;42072;48.044;14.416;2024-01-10T01:14:01;-5.40;1.00
38359;DHT22;42072;48.044;14.416;2024-01-10T01:16:28;-5.40;1.00
38359;DHT22;42072;48.044;14.416;2024-01-10T01:18:55;-5.40;1.00
38359;DHT22;42072;48.044;14.416;2024-01-10T01:21:23;-5.40;1.00
38359;DHT22;42072;48.044;14.416;2024-01-10T01:23:50;-5.40;1.00
38359;DHT22;42072;48.044;14.416;2024-01-10T01:26:17;-5.40;1.00
38359;DHT22;42072;48.044;14.416;2024-01-10T01:28:44;-5.50;1.00
38359;DHT22;42072;48.044;14.416;2024-01-10T01:31:11;-5.50;1.00
38359;DHT22;42072;48.044;14.416;2024-01-10T01:33:38;-5.50;1.00
38359;DHT22;42072;48.044;14.416;2024-01-10T01:36:06;-5.50;1.00
38359;DHT22;42072;48.044;14.416;2024-01-10T01:38:33;-5.50;1.00
38359;DHT22;42072;48.044;14.416;2024-01-10T01:41:01;-5.50;1.00
38359;DHT22;42072;48.044;14.416;2024-01-10T01:43:30;-5.50;1.00
38359;DHT22;42072;48.044;14.416;2024-01-10T01:45:57;-5.50;1.00
38359;DHT22;42072;48.044;14.416;2024-01-10T01:48:24;-5.50;1.00
38359;DHT22;42072;48.044;14.416;2024-01-10T01:50:54;-5.50;1.00
38359;DHT22;42072;48.044;14.416;2024-01-10T01:53:23;-5.50;1.00
38359;DHT22;42072;48.044;14.416;2024-01-10T01:55:51;-5.70;1.00
38359;DHT22;42072;48.044;14.416;2024-01-10T01:58:19;-5.70;1.00
38359;DHT22;42072;48.044;14.416;2024-01-10T02:00:46;-5.70;1.00
38359;DHT22;42072;48.044;14.416;2024-01-10T02:03:13;-5.70;1.00
38359;DHT22;42072;48.044;14.416;2024-01-10T02:05:41;-5.70;1.00
38359;DHT22;42072;48.044;14.416;2024-01-10T02:08:08;-5.70;1.00
38359;DHT22;42072;48.044;14.416;2024-01-10T02:10:36;-5.70;1.00
38359;DHT22;42072;48.044;14.416;2024-01-10T02:13:03;-5.70;7.40
38359;DHT22;42072;48.044;14.416;2024-01-10T02:15:30;-5.70;13.10
38359;DHT22;42072;48.044;14.416;2024-01-10T02:17:57;-5.60;10.60
38359;DHT22;42072;48.044;14.416;2024-01-10T02:20:25;-5.60;17.10
38359;DHT22;42072;48.044;14.416;2024-01-10T02:22:52;-5.60;17.60
38359;DHT22;42072;48.044;14.416;2024-01-10T02:25:19;-5.50;17.00
38359;DHT22;42072;48.044;14.416;2024-01-10T02:27:46;-5.50;16.90
38359;DHT22;42072;48.044;14.416;2024-01-10T02:30:14;-5.50;16.10
38359;DHT22;42072;48.044;14.416;2024-01-10T02:32:41;-5.50;21.40
38359;DHT22;42072;48.044;14.416;2024-01-10T02:35:08;-5.40;16.80
38359;DHT22;42072;48.044;14.416;2024-01-10T02:37:36;-5.40;9.50
38359;DHT22;42072;48.044;14.416;2024-01-10T02:40:03;-5.40;7.10
38359;DHT22;42072;48.044;14.416;2024-01-10T02:42:31;-5.30;2.40
38359;DHT22;42072;48.044;14.416;2024-01-10T02:44:58;-5.40;1.00
38359;DHT22;42072;48.044;14.416;2024-01-10T02:47:26;-5.50;1.00
38359;DHT22;42072;48.044;14.416;2024-01-10T02:49:53;-5.50;1.00
38359;DHT22;42072;48.044;14.416;2024-01-10T02:52:20;-5.60;1.00
38359;DHT22;42072;48.044;14.416;2024-01-10T02:54:47;-5.70;6.90
38359;DHT22;42072;48.044;14.416;2024-01-10T02:57:15;-5.80;17.10
38359;DHT22;42072;48.044;14.416;2024-01-10T02:59:42;-5.80;25.80
38359;DHT22;42072;48.044;14.416;2024-01-10T03:02:09;-5.90;84.40
38359;DHT22;42072;48.044;14.416;2024-01-10T03:04:37;-6.00;99.90
38359;DHT22;42072;48.044;14.416;2024-01-10T03:07:04;-6.20;99.90
38359;DHT22;42072;48.044;14.416;2024-01-10T03:09:31;-6.30;99.90
38359;DHT22;42072;48.044;14.416;2024-01-10T03:11:59;-6.40;99.90
38359;DHT22;42072;48.044;14.416;2024-01-10T03:14:26;-6.40;99.90
38359;DHT22;42072;48.044;14.416;2024-01-10T03:16:53;-6.40;99.90
38359;DHT22;42072;48.044;14.416;2024-01-10T03:19:23;-6.40;99.90
38359;DHT22;42072;48.044;14.416;2024-01-10T03:21:51;-6.40;99.90
38359;DHT22;42072;48.044;14.416;2024-01-10T03:24:18;-6.50;99.90
38359;DHT22;42072;48.044;14.416;2024-01-10T03:26:45;-6.60;99.90
38359;DHT22;42072;48.044;14.416;2024-01-10T03:29:12;-6.60;99.90
38359;DHT22;42072;48.044;14.416;2024-01-10T03:31:39;-6.60;99.90
38359;DHT22;42072;48.044;14.416;2024-01-10T03:34:06;-6.60;99.90
38359;DHT22;42072;48.044;14.416;2024-01-10T03:36:33;-6.60;99.90
38359;DHT22;42072;48.044;14.416;2024-01-10T03:39:01;-6.50;99.90
38359;DHT22;42072;48.044;14.416;2024-01-10T03:41:28;-6.50;99.90
38359;DHT22;42072;48.044;14.416;2024-01-10T03:43:55;-6.40;99.90
38359;DHT22;42072;48.044;14.416;2024-01-10T03:46:22;-6.40;99.90
38359;DHT22;42072;48.044;14.416;2024-01-10T03:48:49;-6.30;99.90
38359;DHT22;42072;48.044;14.416;2024-01-10T03:51:18;-6.40;99.90
38359;DHT22;42072;48.044;14.416;2024-01-10T03:53:45;-6.40;99.90
38359;DHT22;42072;48.044;14.416;2024-01-10T03:56:13;-6.40;99.90
38359;DHT22;42072;48.044;14.416;2024-01-10T03:58:40;-6.40;99.60
38359;DHT22;42072;48.044;14.416;2024-01-10T04:01:08;-6.40;96.40
38359;DHT22;42072;48.044;14.416;2024-01-10T04:03:36;-6.40;92.20
38359;DHT22;42072;48.044;14.416;2024-01-10T04:06:03;-6.40;94.70
38359;DHT22;42072;48.044;14.416;2024-01-10T04:08:31;-6.40;94.40
38359;DHT22;42072;48.044;14.416;2024-01-10T04:10:58;-6.40;94.60
38359;DHT22;42072;48.044;14.416;2024-01-10T04:13:25;-6.40;95.60
38359;DHT22;42072;48.044;14.416;2024-01-10T04:15:53;-6.50;96.60
38359;DHT22;42072;48.044;14.416;2024-01-10T04:18:20;-6.40;97.70
38359;DHT22;42072;48.044;14.416;2024-01-10T04:20:49;-6.40;95.60
38359;DHT22;42072;48.044;14.416;2024-01-10T04:23:16;-6.40;92.80
38359;DHT22;42072;48.044;14.416;2024-01-10T04:25:44;-6.40;92.80
38359;DHT22;42072;48.044;14.416;2024-01-10T04:28:11;-6.50;93.30
38359;DHT22;42072;48.044;14.416;2024-01-10T04:30:38;-6.50;93.50
38359;DHT22;42072;48.044;14.416;2024-01-10T04:33:05;-6.50;96.10
38359;DHT22;42072;48.044;14.416;2024-01-10T04:35:33;-6.50;94.60
38359;DHT22;42072;48.044;14.416;2024-01-10T04:38:00;-6.50;93.10
38359;DHT22;42072;48.044;14.416;2024-01-10T04:40:27;-6.60;96.10
38359;DHT22;42072;48.044;14.416;2024-01-10T04:42:54;-6.60;99.90
38359;DHT22;42072;48.044;14.416;2024-01-10T04:45:21;-6.60;99.90
38359;DHT22;42072;48.044;14.416;2024-01-10T04:47:48;-6.60;99.90
38359;DHT22;42072;48.044;14.416;2024-01-10T04:50:16;-6.60;99.90
38359;DHT22;42072;48.044;14.416;2024-01-10T04:52:43;-6.50;99.90
38359;DHT22;42072;48.044;14.416;2024-01-10T04:55:10;-6.60;99.50
38359;DHT22;42072;48.044;14.416;2024-01-10T04:57:38;-6.60;99.90
38359;DHT22;42072;48.044;14.416;2024-01-10T05:00:05;-6.60;99.90
38359;DHT22;42072;48.044;14.416;2024-01-10T05:02:33;-6.50;99.90
38359;DHT22;42072;48.044;14.416;2024-01-10T05:05:01;-6.50;99.90
38359;DHT22;42072;48.044;14.416;2024-01-10T05:07:28;-6.50;99.90
38359;DHT22;42072;48.044;14.416;2024-01-10T05:09:55;-6.50;99.90
38359;DHT22;42072;48.044;14.416;2024-01-10T05:12:22;-6.60;99.80
38359;DHT22;42072;48.044;14.416;2024-01-10T05:14:50;-6.60;99.90
38359;DHT22;42072;48.044;14.416;2024-01-10T05:17:17;-6.60;99.90
38359;DHT22;42072;48.044;14.416;2024-01-10T05:19:45;-6.50;99.90
38359;DHT22;42072;48.044;14.416;2024-01-10T05:22:13;-6.60;99.50
38359;DHT22;42072;48.044;14.416;2024-01-10T05:24:40;-6.60;98.80
38359;DHT22;42072;48.044;14.416;2024-01-10T05:27:07;-6.60;98.30
38359;DHT22;42072;48.044;14.416;2024-01-10T05:29:34;-6.60;98.70
38359;DHT22;42072;48.044;14.416;2024-01-10T05:32:01;-6.60;95.90
38359;DHT22;42072;48.044;14.416;2024-01-10T05:34:28;-6.60;99.90
38359;DHT22;42072;48.044;14.416;2024-01-10T05:36:56;-6.60;99.90
38359;DHT22;42072;48.044;14.416;2024-01-10T05:39:23;-6.70;99.90
38359;DHT22;42072;48.044;14.416;2024-01-10T05:41:50;-6.70;99.90
38359;DHT22;42072;48.044;14.416;2024-01-10T05:44:17;-6.80;99.90
38359;DHT22;42072;48.044;14.416;2024-01-10T05:46:45;-6.90;99.90
38359;DHT22;42072;48.044;14.416;2024-01-10T05:49:12;-7.00;99.90
38359;DHT22;42072;48.044;14.416;2024-01-10T05:51:39;-7.10;99.90
38359;DHT22;42072;48.044;14.416;2024-01-10T05:54:06;-7.20;99.90
38359;DHT22;42072;48.044;14.416;2024-01-10T05:56:34;-7.30;99.90
38359;DHT22;42072;48.044;14.416;2024-01-10T05:59:01;-7.40;99.90
38359;DHT22;42072;48.044;14.416;2024-01-10T06:01:28;-7.40;99.90
38359;DHT22;42072;48.044;14.416;2024-01-10T06:03:56;-7.50;99.90
38359;DHT22;42072;48.044;14.416;2024-01-10T06:06:23;-7.50;1.00
38359;DHT22;42072;48.044;14.416;2024-01-10T06:08:51;-7.50;1.00
38359;DHT22;42072;48.044;14.416;2024-01-10T06:11:18;-7.50;1.00
38359;DHT22;42072;48.044;14.416;2024-01-10T06:13:45;-7.50;1.00
38359;DHT22;42072;48.044;14.416;2024-01-10T06:16:22;-7.50;1.00
38359;DHT22;42072;48.044;14.416;2024-01-10T06:18:49;-7.50;1.00
38359;DHT22;42072;48.044;14.416;2024-01-10T06:21:17;-7.50;1.00
38359;DHT22;42072;48.044;14.416;2024-01-10T06:23:44;-7.50;1.00
38359;DHT22;42072;48.044;14.416;2024-01-10T06:26:11;-7.50;1.00
38359;DHT22;42072;48.044;14.416;2024-01-10T06:28:39;-7.50;1.00
38359;DHT22;42072;48.044;14.416;2024-01-10T06:31:06;-7.40;1.00
38359;DHT22;42072;48.044;14.416;2024-01-10T06:33:38;-7.50;1.00
38359;DHT22;42072;48.044;14.416;2024-01-10T06:36:05;-7.50;1.00
38359;DHT22;42072;48.044;14.416;2024-01-10T06:38:32;-7.50;1.00
38359;DHT22;42072;48.044;14.416;2024-01-10T06:40:59;-7.60;1.00
38359;DHT22;42072;48.044;14.416;2024-01-10T06:43:27;-7.50;1.00
38359;DHT22;42072;48.044;14.416;2024-01-10T06:45:54;-7.50;1.00
38359;DHT22;42072;48.044;14.416;2024-01-10T06:48:22;-7.50;1.00
38359;DHT22;42072;48.044;14.416;2024-01-10T06:50:49;-7.40;1.00
38359;DHT22;42072;48.044;14.416;2024-01-10T06:53:16;-7.40;1.00
38359;DHT22;42072;48.044;14.416;2024-01-10T06:56:09;-7.40;1.00
38359;DHT22;42072;48.044;14.416;2024-01-10T06:58:38;-7.50;1.00
38359;DHT22;42072;48.044;14.416;2024-01-10T07:01:11;-7.50;1.00
38359;DHT22;42072;48.044;14.416;2024-01-10T07:03:41;-7.60;1.00
38359;DHT22;42072;48.044;14.416;2024-01-10T07:06:08;-7.60;1.00
38359;DHT22;42072;48.044;14.416;2024-01-10T07:08:35;-7.60;1.00
38359;DHT22;42072;48.044;14.416;2024-01-10T07:11:03;-7.50;1.00
38359;DHT22;42072;48.044;14.416;2024-01-10T07:13:30;-7.50;1.00
38359;DHT22;42072;48.044;14.416;2024-01-10T07:15:59;-7.50;1.00
38359;DHT22;42072;48.044;14.416;2024-01-10T07:18:29;-7.50;1.00
38359;DHT22;42072;48.044;14.416;2024-01-10T07:20:57;-7.50;1.00
38359;DHT22;42072;48.044;14.416;2024-01-10T07:23:25;-7.50;1.00
38359;DHT22;42072;48.044;14.416;2024-01-10T07:25:52;-7.40;1.00
38359;DHT22;42072;48.044;14.416;2024-01-10T07:28:19;-7.40;1.00
38359;DHT22;42072;48.044;14.416;2024-01-10T07:30:47;-7.40;1.00
38359;DHT22;42072;48.044;14.416;2024-01-10T07:33:14;-7.40;1.00
38359;DHT22;42072;48.044;14.416;2024-01-10T07:35:42;-7.30;1.00
38359;DHT22;42072;48.044;14.416;2024-01-10T07:38:10;-7.30;1.00
38359;DHT22;42072;48.044;14.416;2024-01-10T07:40:37;-7.20;1.00
38359;DHT22;42072;48.044;14.416;2024-01-10T07:43:06;-7.20;1.00
38359;DHT22;42072;48.044;14.416;2024-01-10T07:45:34;-7.20;1.00
38359;DHT22;42072;48.044;14.416;2024-01-10T07:48:01;-7.10;1.00
38359;DHT22;42072;48.044;14.416;2024-01-10T07:50:29;-7.00;1.00
38359;DHT22;42072;48.044;14.416;2024-01-10T07:52:56;-6.90;1.00
38359;DHT22;42072;48.044;14.416;2024-01-10T07:55:23;-6.90;1.00
38359;DHT22;42072;48.044;14.416;2024-01-10T07:57:50;-6.80;1.00
38359;DHT22;42072;48.044;14.416;2024-01-10T08:00:18;-6.70;99.90
38359;DHT22;42072;48.044;14.416;2024-01-10T08:02:47;-6.70;99.90
38359;DHT22;42072;48.044;14.416;2024-01-10T08:05:16;-6.60;99.90
38359;DHT22;42072;48.044;14.416;2024-01-10T08:07:44;-6.50;99.90
38359;DHT22;42072;48.044;14.416;2024-01-10T08:10:11;-6.40;99.90
38359;DHT22;42072;48.044;14.416;2024-01-10T08:12:38;-6.30;99.90
38359;DHT22;42072;48.044;14.416;2024-01-10T08:15:08;-6.30;99.90
38359;DHT22;42072;48.044;14.416;2024-01-10T08:17:35;-6.20;99.90
38359;DHT22;42072;48.044;14.416;2024-01-10T08:20:05;-6.10;99.90
38359;DHT22;42072;48.044;14.416;2024-01-10T08:22:33;-6.10;99.90
38359;DHT22;42072;48.044;14.416;2024-01-10T08:25:00;-6.00;99.90
38359;DHT22;42072;48.044;14.416;2024-01-10T08:27:27;-5.90;99.90
38359;DHT22;42072;48.044;14.416;2024-01-10T08:29:54;-5.80;99.90
38359;DHT22;42072;48.044;14.416;2024-01-10T08:32:21;-5.80;99.90
38359;DHT22;42072;48.044;14.416;2024-01-10T08:34:49;-5.70;99.90
38359;DHT22;42072;48.044;14.416;2024-01-10T08:37:16;-5.70;99.90
38359;DHT22;42072;48.044;14.416;2024-01-10T08:39:44;-5.60;99.90
38359;DHT22;42072;48.044;14.416;2024-01-10T08:42:11;-5.50;99.90
38359;DHT22;42072;48.044;14.416;2024-01-10T08:44:38;-5.40;99.90
38359;DHT22;42072;48.044;14.416;2024-01-10T08:47:05;-5.40;92.00
38359;DHT22;42072;48.044;14.416;2024-01-10T08:49:33;-5.30;85.80
38359;DHT22;42072;48.044;14.416;2024-01-10T08:52:00;-5.20;52.50
38359;DHT22;42072;48.044;14.416;2024-01-10T08:54:28;-5.10;25.30
38359;DHT22;42072;48.044;14.416;2024-01-10T08:56:55;-5.00;1.00
38359;DHT22;42072;48.044;14.416;2024-01-10T08:59:23;-5.20;1.00
38359;DHT22;42072;48.044;14.416;2024-01-10T09:01:50;-5.20;1.00
38359;DHT22;42072;48.044;14.416;2024-01-10T09:04:19;-5.10;1.00
38359;DHT22;42072;48.044;14.416;2024-01-10T09:06:46;-5.00;1.00
38359;DHT22;42072;48.044;14.416;2024-01-10T09:09:14;-4.80;1.00
38359;DHT22;42072;48.044;14.416;2024-01-10T09:11:41;-4.80;1.00
38359;DHT22;42072;48.044;14.416;2024-01-10T09:14:11;-4.60;1.00
38359;DHT22;42072;48.044;14.416;2024-01-10T09:16:39;-4.60;1.00
38359;DHT22;42072;48.044;14.416;2024-01-10T09:19:06;-4.60;1.00
38359;DHT22;42072;48.044;14.416;2024-01-10T09:21:37;-4.40;1.00
38359;DHT22;42072;48.044;14.416;2024-01-10T09:24:04;-4.30;1.00
38359;DHT22;42072;48.044;14.416;2024-01-10T09:26:54;-4.20;1.00
38359;DHT22;42072;48.044;14.416;2024-01-10T09:29:21;-4.10;1.00
38359;DHT22;42072;48.044;14.416;2024-01-10T09:31:48;-4.00;1.00
38359;DHT22;42072;48.044;14.416;2024-01-10T09:34:16;-3.90;1.00
38359;DHT22;42072;48.044;14.416;2024-01-10T09:36:43;-3.70;1.00
38359;DHT22;42072;48.044;14.416;2024-01-10T09:39:10;-3.60;1.00
38359;DHT22;42072;48.044;14.416;2024-01-10T09:41:43;-3.60;1.00
38359;DHT22;42072;48.044;14.416;2024-01-10T09:44:12;-3.50;1.00
38359;DHT22;42072;48.044;14.416;2024-01-10T09:46:40;-3.50;1.00
38359;DHT22;42072;48.044;14.416;2024-01-10T09:49:07;-3.50;1.00
38359;DHT22;42072;48.044;14.416;2024-01-10T09:51:35;-3.40;1.00
38359;DHT22;42072;48.044;14.416;2024-01-10T09:54:02;-3.40;1.00
38359;DHT22;42072;48.044;14.416;2024-01-10T09:56:32;-3.40;1.00
38359;DHT22;42072;48.044;14.416;2024-01-10T09:59:00;-3.30;1.00
38359;DHT22;42072;48.044;14.416;2024-01-10T10:01:28;-3.20;1.00
38359;DHT22;42072;48.044;14.416;2024-01-10T10:03:55;-3.10;1.00
38359;DHT22;42072;48.044;14.416;2024-01-10T10:06:23;-3.00;1.00
38359;DHT22;42072;48.044;14.416;2024-01-10T10:08:50;-3.00;1.00
38359;DHT22;42072;48.044;14.416;2024-01-10T10:11:18;-2.80;1.00
38359;DHT22;42072;48.044;14.416;2024-01-10T10:13:45;-3.00;1.00
38359;DHT22;42072;48.044;14.416;2024-01-10T10:16:12;-2.90;1.00
38359;DHT22;42072;48.044;14.416;2024-01-10T10:18:40;-3.00;99.90
38359;DHT22;42072;48.044;14.416;2024-01-10T10:21:17;-3.00;99.90
38359;DHT22;42072;48.044;14.416;2024-01-10T10:23:57;-2.90;99.90
38359;DHT22;42072;48.044;14.416;2024-01-10T10:26:24;-2.80;99.90
38359;DHT22;42072;48.044;14.416;2024-01-10T10:28:54;-2.90;99.90
38359;DHT22;42072;48.044;14.416;2024-01-10T10:31:21;-2.70;99.90
38359;DHT22;42072;48.044;14.416;2024-01-10T10:33:48;-2.60;99.90
38359;DHT22;42072;48.044;14.416;2024-01-10T10:36:17;-2.50;99.90
38359;DHT22;42072;48.044;14.416;2024-01-10T10:38:45;-2.50;99.90
38359;DHT22;42072;48.044;14.416;2024-01-10T10:41:13;-2.50;99.90
38359;DHT22;42072;48.044;14.416;2024-01-10T10:43:41;-2.50;99.90
38359;DHT22;42072;48.044;14.416;2024-01-10T10:46:09;-2.50;99.90
38359;DHT22;42072;48.044;14.416;2024-01-10T10:48:39;-2.40;99.90
38359;DHT22;42072;48.044;14.416;2024-01-10T10:51:11;-2.30;99.90
38359;DHT22;42072;48.044;14.416;2024-01-10T10:53:38;-2.20;99.90
38359;DHT22;42072;48.044;14.416;2024-01-10T10:56:07;-2.10;99.90
38359;DHT22;42072;48.044;14.416;2024-01-10T10:58:36;-2.00;99.90
38359;DHT22;42072;48.044;14.416;2024-01-10T11:01:05;-2.00;99.90
38359;DHT22;42072;48.044;14.416;2024-01-10T11:03:37;-2.10;99.90
38359;DHT22;42072;48.044;14.416;2024-01-10T11:06:04;-2.00;99.90
38359;DHT22;42072;48.044;14.416;2024-01-10T11:08:52;-2.00;99.90
38359;DHT22;42072;48.044;14.416;2024-01-10T11:16:30;-1.90;99.90
38359;DHT22;42072;48.044;14.416;2024-01-10T11:21:45;-1.70;99.90
38359;DHT22;42072;48.044;14.416;2024-01-10T11:24:17;-1.60;99.90
38359;DHT22;42072;48.044;14.416;2024-01-10T11:26:45;-1.60;99.90
38359;DHT22;42072;48.044;14.416;2024-01-10T11:29:12;-1.50;99.90
38359;DHT22;42072;48.044;14.416;2024-01-10T11:31:39;-1.40;99.90
38359;DHT22;42072;48.044;14.416;2024-01-10T11:34:08;-1.40;99.90
38359;DHT22;42072;48.044;14.416;2024-01-10T11:36:35;-1.50;99.90
38359;DHT22;42072;48.044;14.416;2024-01-10T11:39:05;-1.50;99.90
38359;DHT22;42072;48.044;14.416;2024-01-10T11:41:34;-1.40;99.90
38359;DHT22;42072;48.044;14.416;2024-01-10T11:46:49;-1.50;99.90
38359;DHT22;42072;48.044;14.416;2024-01-10T11:49:17;-1.50;99.90
38359;DHT22;42072;48.044;14.416;2024-01-10T11:51:46;-1.40;99.90
38359;DHT22;42072;48.044;14.416;2024-01-10T11:57:00;-1.40;99.90
38359;DHT22;42072;48.044;14.416;2024-01-10T11:59:28;-1.20;99.90
38359;DHT22;42072;48.044;14.416;2024-01-10T12:01:57;-1.10;99.90
38359;DHT22;42072;48.044;14.416;2024-01-10T12:04:24;-1.10;99.90
38359;DHT22;42072;48.044;14.416;2024-01-10T12:07:12;-1.10;99.90
38359;DHT22;42072;48.044;14.416;2024-01-10T12:09:40;-1.10;99.90
38359;DHT22;42072;48.044;14.416;2024-01-10T12:12:08;-1.20;99.90
38359;DHT22;42072;48.044;14.416;2024-01-10T12:14:38;-1.30;99.90
38359;DHT22;42072;48.044;14.416;2024-01-10T12:17:05;-1.50;99.90
38359;DHT22;42072;48.044;14.416;2024-01-10T12:19:34;-1.50;99.90
38359;DHT22;42072;48.044;14.416;2024-01-10T12:22:03;-1.30;99.90
38359;DHT22;42072;48.044;14.416;2024-01-10T12:24:33;-1.20;99.90
38359;DHT22;42072;48.044;14.416;2024-01-10T12:27:00;-1.20;99.90
38359;DHT22;42072;48.044;14.416;2024-01-10T12:29:27;-1.30;99.90
38359;DHT22;42072;48.044;14.416;2024-01-10T12:31:54;-1.20;99.90
38359;DHT22;42072;48.044;14.416;2024-01-10T12:34:21;-1.00;99.90
38359;DHT22;42072;48.044;14.416;2024-01-10T12:36:49;-1.10;99.90
38359;DHT22;42072;48.044;14.416;2024-01-10T12:39:16;-1.00;99.90
38359;DHT22;42072;48.044;14.416;2024-01-10T12:41:43;-1.10;99.90
38359;DHT22;42072;48.044;14.416;2024-01-10T12:44:11;-1.10;99.90
38359;DHT22;42072;48.044;14.416;2024-01-10T12:46:49;-1.00;99.90
38359;DHT22;42072;48.044;14.416;2024-01-10T12:49:17;-1.00;99.90
38359;DHT22;42072;48.044;14.416;2024-01-10T12:51:44;-0.90;99.90
38359;DHT22;42072;48.044;14.416;2024-01-10T12:54:13;-1.10;99.90
38359;DHT22;42072;48.044;14.416;2024-01-10T12:56:40;-1.00;99.90
38359;DHT22;42072;48.044;14.416;2024-01-10T12:59:07;-1.00;99.90
38359;DHT22;42072;48.044;14.416;2024-01-10T13:01:36;-1.00;99.90
38359;DHT22;42072;48.044;14.416;2024-01-10T13:04:03;-1.00;99.90
38359;DHT22;42072;48.044;14.416;2024-01-10T13:06:34;-0.90;99.90
38359;DHT22;42072;48.044;14.416;2024-01-10T13:09:02;-0.80;99.90
38359;DHT22;42072;48.044;14.416;2024-01-10T13:11:29;-0.70;99.90
38359;DHT22;42072;48.044;14.416;2024-01-10T13:13:57;-0.60;99.90
38359;DHT22;42072;48.044;14.416;2024-01-10T13:16:24;-0.70;99.90
38359;DHT22;42072;48.044;14.416;2024-01-10T13:18:51;-0.60;99.90
38359;DHT22;42072;48.044;14.416;2024-01-10T13:21:20;-0.70;99.90
38359;DHT22;42072;48.044;14.416;2024-01-10T13:23:47;-0.80;99.90
38359;DHT22;42072;48.044;14.416;2024-01-10T13:26:14;-0.70;99.90
38359;DHT22;42072;48.044;14.416;2024-01-10T13:28:42;-0.70;99.90
38359;DHT22;42072;48.044;14.416;2024-01-10T13:31:10;-0.60;99.90
38359;DHT22;42072;48.044;14.416;2024-01-10T13:33:37;-0.50;99.90
38359;DHT22;42072;48.044;14.416;2024-01-10T13:36:13;-0.60;99.90
38359;DHT22;42072;48.044;14.416;2024-01-10T13:38:40;-0.50;99.90
38359;DHT22;42072;48.044;14.416;2024-01-10T13:41:07;-0.60;99.90
38359;DHT22;42072;48.044;14.416;2024-01-10T13:43:34;-0.50;99.90
38359;DHT22;42072;48.044;14.416;2024-01-10T13:46:01;-0.60;99.90
38359;DHT22;42072;48.044;14.416;2024-01-10T13:48:35;-0.70;99.90
38359;DHT22;42072;48.044;14.416;2024-01-10T13:51:02;-0.80;99.90
38359;DHT22;42072;48.044;14.416;2024-01-10T13:53:32;-0.70;99.90
38359;DHT22;42072;48.044;14.416;2024-01-10T13:55:59;-0.80;99.90
38359;DHT22;42072;48.044;14.416;2024-01-10T13:58:26;-0.80;99.90
38359;DHT22;42072;48.044;14.416;2024-01-10T14:00:53;-1.00;99.90
38359;DHT22;42072;48.044;14.416;2024-01-10T14:03:21;-0.90;99.90
38359;DHT22;42072;48.044;14.416;2024-01-10T14:05:48;-0.90;99.90
38359;DHT22;42072;48.044;14.416;2024-01-10T14:08:16;-0.90;99.90
38359;DHT22;42072;48.044;14.416;2024-01-10T14:10:43;-1.00;99.90
38359;DHT22;42072;48.044;14.416;2024-01-10T14:13:10;-1.00;99.90
38359;DHT22;42072;48.044;14.416;2024-01-10T14:15:37;-1.10;99.90
38359;DHT22;42072;48.044;14.416;2024-01-10T14:18:04;-1.10;99.90
38359;DHT22;42072;48.044;14.416;2024-01-10T14:20:31;-1.10;99.90
38359;DHT22;42072;48.044;14.416;2024-01-10T14:22:59;-1.20;99.90
38359;DHT22;42072;48.044;14.416;2024-01-10T14:25:27;-1.30;99.90
38359;DHT22;42072;48.044;14.416;2024-01-10T14:27:55;-1.40;99.90
38359;DHT22;42072;48.044;14.416;2024-01-10T14:30:23;-1.50;99.90
38359;DHT22;42072;48.044;14.416;2024-01-10T14:32:52;-1.50;99.90
38359;DHT22;42072;48.044;14.416;2024-01-10T14:35:19;-1.60;99.90
38359;DHT22;42072;48.044;14.416;2024-01-10T14:37:47;-1.70;99.90
38359;DHT22;42072;48.044;14.416;2024-01-10T14:40:14;-1.70;1.00
38359;DHT22;42072;48.044;14.416;2024-01-10T14:42:42;-1.80;1.00
38359;DHT22;42072;48.044;14.416;2024-01-10T14:45:09;-1.90;1.00
38359;DHT22;42072;48.044;14.416;2024-01-10T14:47:37;-2.00;1.00
38359;DHT22;42072;48.044;14.416;2024-01-10T14:50:05;-2.10;1.00
38359;DHT22;42072;48.044;14.416;2024-01-10T14:52:32;-2.20;1.00
38359;DHT22;42072;48.044;14.416;2024-01-10T14:54:59;-2.20;1.00
38359;DHT22;42072;48.044;14.416;2024-01-10T14:57:26;-2.30;1.00
38359;DHT22;42072;48.044;14.416;2024-01-10T14:59:53;-2.40;1.00
38359;DHT22;42072;48.044;14.416;2024-01-10T15:02:21;-2.40;1.00
38359;DHT22;42072;48.044;14.416;2024-01-10T15:04:49;-2.50;1.00
38359;DHT22;42072;48.044;14.416;2024-01-10T15:07:16;-2.70;1.00
38359;DHT22;42072;48.044;14.416;2024-01-10T15:09:43;-2.80;1.00
38359;DHT22;42072;48.044;14.416;2024-01-10T15:12:11;-2.80;1.00
38359;DHT22;42072;48.044;14.416;2024-01-10T15:14:38;-2.80;1.00
38359;DHT22;42072;48.044;14.416;2024-01-10T15:17:06;-2.90;1.00
38359;DHT22;42072;48.044;14.416;2024-01-10T15:19:36;-3.00;1.00
38359;DHT22;42072;48.044;14.416;2024-01-10T15:22:04;-3.10;1.00
38359;DHT22;42072;48.044;14.416;2024-01-10T15:24:32;-3.20;1.00
38359;DHT22;42072;48.044;14.416;2024-01-10T15:26:59;-3.30;1.00
38359;DHT22;42072;48.044;14.416;2024-01-10T15:29:37;-3.40;1.00
38359;DHT22;42072;48.044;14.416;2024-01-10T15:32:04;-3.50;1.00
38359;DHT22;42072;48.044;14.416;2024-01-10T15:34:32;-3.50;1.00
38359;DHT22;42072;48.044;14.416;2024-01-10T15:36:59;-3.50;1.00
38359;DHT22;42072;48.044;14.416;2024-01-10T15:39:26;-3.60;1.00